Time;durP1;ratioP1;P1;durP2;ratioP2;P2;SDS_P1;SDS_P2;PMS_P1;PMS_P2;Temp;Humidity;BMP_temperature;BMP_pressure;BME280_temperature;BME280_humidity;BME280_pressure;Samples;Min_cycle;Max_cycle;Signal;HPM_P1;HPM_P2
2022/11/01 00:00:07;;;;;;;1.52;1.42;;;;;;;;;;6303574;22;20020;-70
2022/11/01 00:02:37;;;;;;;;;;;;;;;;;;6276697;22;20408;-69
2022/11/01 00:05:04;;;;;;;1.23;1.23;;;;;;;;;;6276041;22;19907;-70
2022/11/01 00:07:29;;;;;;;1.38;1.33;;;;;;;;;;6303633;22;20011;-69
2022/11/01 00:09:55;;;;;;;1.27;1.27;;;;;;;;;;6303341;22;20092;-70
2022/11/01 00:12:21;;;;;;;2.80;1.10;;;;;;;;;;6303795;22;20011;-70
2022/11/01 00:14:47;;;;;;;1.45;1.40;;;;;;;;;;6303124;22;20034;-70
2022/11/01 00:17:13;;;;;;;1.00;1.00;;;;;;;;;;6303645;22;20014;-69
2022/11/01 00:19:39;;;;;;;1.60;1.40;;;;;;;;;;6303125;22;20359;-70
2022/11/01 00:22:05;;;;;;;1.30;1.30;;;;;;;;;;6303172;22;20007;-69
2022/11/01 00:24:31;;;;;;;1.23;1.23;;;;;;;;;;6303475;22;20356;-70
2022/11/01 00:26:56;;;;;;;1.05;1.05;;;;;;;;;;6303135;22;20014;-70
2022/11/01 00:29:22;;;;;;;1.40;1.40;;;;;;;;;;6276012;22;20535;-69
2022/11/01 00:31:48;;;;;;;1.10;1.10;;;;;;;;;;6303079;22;20094;-71
2022/11/01 00:34:15;;;;;;;1.30;1.30;;;;;;;;;;6276455;22;20053;-70
2022/11/01 00:36:40;;;;;;;0.95;0.95;;;;;;;;;;6302940;22;20444;-69
2022/11/01 00:39:06;;;;;;;1.33;1.33;;;;;;;;;;6303332;22;20047;-70
2022/11/01 00:41:32;;;;;;;1.23;1.23;;;;;;;;;;6303194;22;20011;-69
2022/11/01 00:43:58;;;;;;;1.33;1.30;;;;;;;;;;6303007;22;20018;-69
2022/11/01 00:46:24;;;;;;;1.05;1.05;;;;;;;;;;6303266;22;20015;-71
2022/11/01 00:48:50;;;;;;;1.20;1.20;;;;;;;;;;6303060;22;20522;-70
2022/11/01 00:51:16;;;;;;;1.40;1.40;;;;;;;;;;6303319;22;20415;-69
2022/11/01 00:53:42;;;;;;;1.05;1.05;;;;;;;;;;6275888;22;20015;-69
2022/11/01 00:56:07;;;;;;;1.60;1.60;;;;;;;;;;6302340;22;20137;-69
2022/11/01 00:58:34;;;;;;;1.20;1.20;;;;;;;;;;6275727;22;20050;-70
2022/11/01 01:01:00;;;;;;;1.17;1.08;;;;;;;;;;6302820;22;20459;-69
2022/11/01 01:03:26;;;;;;;1.10;1.10;;;;;;;;;;6303042;22;20076;-69
2022/11/01 01:05:52;;;;;;;1.27;1.27;;;;;;;;;;6302708;22;20516;-70
2022/11/01 01:08:18;;;;;;;1.30;1.30;;;;;;;;;;6250367;22;20019;-68
2022/11/01 01:10:43;;;;;;;1.25;1.25;;;;;;;;;;6302928;22;20011;-69
2022/11/01 01:13:09;;;;;;;1.42;1.42;;;;;;;;;;6275391;22;20463;-68
2022/11/01 01:15:36;;;;;;;1.45;1.40;;;;;;;;;;6302778;22;20391;-70
2022/11/01 01:18:02;;;;;;;1.10;1.10;;;;;;;;;;6302820;22;20149;-69
2022/11/01 01:20:28;;;;;;;1.20;0.95;;;;;;;;;;6275388;22;20635;-69
2022/11/01 01:22:55;;;;;;;1.48;1.38;;;;;;;;;;6302571;22;20019;-70
2022/11/01 01:25:21;;;;;;;1.48;1.48;;;;;;;;;;6275296;22;20022;-69
2022/11/01 01:27:48;;;;;;;0.95;0.95;;;;;;;;;;6302406;22;20046;-69
2022/11/01 01:30:13;;;;;;;1.20;1.20;;;;;;;;;;6302883;22;20007;-69
2022/11/01 01:32:39;;;;;;;1.40;1.30;;;;;;;;;;6302807;22;20011;-68
2022/11/01 01:35:05;;;;;;;1.65;1.55;;;;;;;;;;6302549;22;20109;-70
2022/11/01 01:37:31;;;;;;;1.50;1.50;;;;;;;;;;6302882;22;20011;-69
2022/11/01 01:39:57;;;;;;;1.17;1.17;;;;;;;;;;6302407;22;20050;-70
2022/11/01 01:42:28;;;;;;;1.20;1.20;;;;;;;;;;6249865;22;20052;-68
2022/11/01 01:44:54;;;;;;;1.03;1.03;;;;;;;;;;6302311;22;20069;-69
2022/11/01 01:47:20;;;;;;;1.40;1.33;;;;;;;;;;6275879;22;20007;-68
2022/11/01 01:49:46;;;;;;;1.20;1.20;;;;;;;;;;6302548;22;20011;-69
2022/11/01 01:52:12;;;;;;;1.30;1.20;;;;;;;;;;6302398;22;20076;-69
2022/11/01 01:54:38;;;;;;;1.35;1.35;;;;;;;;;;6302542;22;20149;-70
2022/11/01 01:57:04;;;;;;;1.13;1.13;;;;;;;;;;6302386;22;20065;-70
2022/11/01 01:59:29;;;;;;;1.10;1.02;;;;;;;;;;6249238;22;20033;-69
2022/11/01 02:01:56;;;;;;;1.23;1.23;;;;;;;;;;6302726;22;20011;-74
2022/11/01 02:04:29;;;;;;;1.25;1.25;;;;;;;;;;6275800;22;20072;-70
2022/11/01 02:06:56;;;;;;;2.00;1.90;;;;;;;;;;6249232;22;20011;-72
2022/11/01 02:09:23;;;;;;;1.30;1.30;;;;;;;;;;6302545;22;20018;-70
2022/11/01 02:11:49;;;;;;;1.75;1.70;;;;;;;;;;6274992;22;20008;-68
2022/11/01 02:14:15;;;;;;;1.55;1.45;;;;;;;;;;6275358;22;20361;-72
2022/11/01 02:16:58;;;;;;;1.30;1.30;;;;;;;;;;6275003;22;20046;-70
2022/11/01 02:19:36;;;;;;;1.60;1.50;;;;;;;;;;6250011;22;20011;-69
2022/11/01 02:22:05;;;;;;;1.45;1.35;;;;;;;;;;6302003;22;20018;-70
2022/11/01 02:24:47;;;;;;;1.17;1.17;;;;;;;;;;6275070;22;20030;-70
2022/11/01 02:27:17;;;;;;;1.30;1.30;;;;;;;;;;6249143;22;20015;-69
2022/11/01 02:30:09;;;;;;;1.10;1.10;;;;;;;;;;6249414;22;20014;-69
2022/11/01 02:32:36;;;;;;;1.70;1.60;;;;;;;;;;6297014;22;20021;-69
2022/11/01 02:35:17;;;;;;;1.95;1.85;;;;;;;;;;6304060;22;20011;-70
2022/11/01 02:37:58;;;;;;;1.40;1.40;;;;;;;;;;6275961;22;20090;-70
2022/11/01 02:40:44;;;;;;;1.55;1.45;;;;;;;;;;6275092;22;20355;-68
2022/11/01 02:43:30;;;;;;;1.30;1.30;;;;;;;;;;6302004;22;20023;-69
2022/11/01 02:45:56;;;;;;;1.60;1.60;;;;;;;;;;6227907;22;20011;-70
2022/11/01 02:48:22;;;;;;;1.40;1.40;;;;;;;;;;6249593;22;20022;-70
2022/11/01 02:50:53;;;;;;;1.30;1.30;;;;;;;;;;6302141;22;20030;-69
2022/11/01 02:53:18;;;;;;;1.40;1.40;;;;;;;;;;6249707;22;20069;-69
2022/11/01 02:55:44;;;;;;;1.40;1.40;;;;;;;;;;6274454;22;20515;-69
2022/11/01 02:58:23;;;;;;;2.15;1.70;;;;;;;;;;6274494;22;20038;-69
2022/11/01 03:00:49;;;;;;;2.15;1.60;;;;;;;;;;6302033;22;20019;-69
2022/11/01 03:03:31;;;;;;;1.90;1.75;;;;;;;;;;6301816;22;20026;-69
2022/11/01 03:06:04;;;;;;;3.30;1.77;;;;;;;;;;6274462;22;20478;-69
2022/11/01 03:08:40;;;;;;;1.50;1.40;;;;;;;;;;6302094;22;20499;-69
2022/11/01 03:11:10;;;;;;;1.75;1.67;;;;;;;;;;6274560;22;20015;-70
2022/11/01 03:13:39;;;;;;;1.52;1.52;;;;;;;;;;6274897;22;20007;-70
2022/11/01 03:16:23;;;;;;;1.60;1.60;;;;;;;;;;6301703;22;20073;-69
2022/11/01 03:19:02;;;;;;;1.80;1.80;;;;;;;;;;6275343;22;20007;-69
2022/11/01 03:21:29;;;;;;;1.30;1.30;;;;;;;;;;6303967;22;20018;-69
2022/11/01 03:23:58;;;;;;;1.65;1.65;;;;;;;;;;6276490;22;20109;-70
2022/11/01 03:26:24;;;;;;;1.23;1.23;;;;;;;;;;6276765;22;20436;-70
2022/11/01 03:28:54;;;;;;;2.45;1.60;;;;;;;;;;6276883;22;20451;-69
2022/11/01 03:31:24;;;;;;;1.48;1.35;;;;;;;;;;6276797;22;20035;-70
2022/11/01 03:33:55;;;;;;;1.70;1.60;;;;;;;;;;6276717;22;20475;-70
2022/11/01 03:36:21;;;;;;;2.45;1.83;;;;;;;;;;6251259;22;20011;-70
2022/11/01 03:38:51;;;;;;;3.30;1.60;;;;;;;;;;6275818;22;20499;-69
2022/11/01 03:41:17;;;;;;;1.58;1.48;;;;;;;;;;6275970;22;20073;-69
2022/11/01 03:43:43;;;;;;;1.50;1.50;;;;;;;;;;6276280;22;20023;-69
2022/11/01 03:46:08;;;;;;;1.27;1.27;;;;;;;;;;6303261;22;20012;-70
2022/11/01 03:48:37;;;;;;;2.03;1.90;;;;;;;;;;6303833;22;20015;-69
2022/11/01 03:51:04;;;;;;;2.28;2.10;;;;;;;;;;6303436;22;20038;-69
2022/11/01 03:53:29;;;;;;;2.00;1.90;;;;;;;;;;6303770;22;20448;-69
2022/11/01 03:55:55;;;;;;;2.90;2.00;;;;;;;;;;6303527;22;20007;-69
2022/11/01 03:58:21;;;;;;;1.70;1.60;;;;;;;;;;6276012;22;20018;-69
2022/11/01 04:00:47;;;;;;;3.40;1.52;;;;;;;;;;6303755;22;20018;-70
2022/11/01 04:03:13;;;;;;;1.75;1.65;;;;;;;;;;6303915;22;20119;-69
2022/11/01 04:05:39;;;;;;;1.65;1.65;;;;;;;;;;6303936;22;20388;-70
2022/11/01 04:08:05;;;;;;;1.35;1.35;;;;;;;;;;6276219;22;20019;-69
2022/11/01 04:10:31;;;;;;;1.95;1.85;;;;;;;;;;6276370;22;20011;-69
2022/11/01 04:12:57;;;;;;;2.25;2.10;;;;;;;;;;6276010;22;20041;-70
2022/11/01 04:21:09;;;;;;;3.72;2.78;;;;;;;;;;6303008;22;20017;-71
2022/11/01 04:23:35;;;;;;;1.40;1.40;;;;;;;;;;6303266;22;20029;-70
2022/11/01 04:26:01;;;;;;;1.90;1.80;;;;;;;;;;6250350;22;20007;-70
2022/11/01 04:28:27;;;;;;;2.40;1.60;;;;;;;;;;6303093;22;20011;-71
2022/11/01 04:30:53;;;;;;;1.80;1.70;;;;;;;;;;6275756;22;20447;-70
2022/11/01 04:33:18;;;;;;;1.90;1.80;;;;;;;;;;6275578;22;20019;-69
2022/11/01 04:35:44;;;;;;;1.80;1.80;;;;;;;;;;6275629;22;20065;-69
2022/11/01 04:38:11;;;;;;;1.83;1.65;;;;;;;;;;6275705;22;20359;-69
2022/11/01 04:40:36;;;;;;;1.70;1.70;;;;;;;;;;6303095;22;20014;-70
2022/11/01 04:43:02;;;;;;;2.08;1.98;;;;;;;;;;6276180;22;20030;-69
2022/11/01 04:45:28;;;;;;;2.33;2.13;;;;;;;;;;6303209;22;20343;-70
2022/11/01 04:48:01;;;;;;;2.67;2.47;;;;;;;;;;6275812;22;20023;-70
2022/11/01 04:50:27;;;;;;;2.50;2.40;;;;;;;;;;6303158;22;20043;-70
2022/11/01 04:52:53;;;;;;;2.20;2.10;;;;;;;;;;6302951;22;20710;-70
2022/11/01 04:55:19;;;;;;;3.30;2.40;;;;;;;;;;6302822;22;20600;-70
2022/11/01 04:57:44;;;;;;;2.17;2.08;;;;;;;;;;6276203;22;20015;-71
2022/11/01 05:00:11;;;;;;;5.13;2.38;;;;;;;;;;6303420;22;20026;-71
2022/11/01 05:02:37;;;;;;;3.05;2.78;;;;;;;;;;6276130;22;20363;-70
2022/11/01 05:05:03;;;;;;;2.28;2.17;;;;;;;;;;6302817;22;20011;-70
2022/11/01 05:07:29;;;;;;;2.80;2.70;;;;;;;;;;6303063;22;20011;-70
2022/11/01 05:09:55;;;;;;;3.42;2.90;;;;;;;;;;6302922;22;20522;-71
2022/11/01 05:12:21;;;;;;;2.35;2.15;;;;;;;;;;6275287;22;20019;-70
2022/11/01 05:14:47;;;;;;;2.70;2.55;;;;;;;;;;6275912;22;20157;-70
2022/11/01 05:17:13;;;;;;;6.72;2.85;;;;;;;;;;6250053;22;20011;-70
2022/11/01 05:19:39;;;;;;;2.65;2.55;;;;;;;;;;6302669;22;20021;-70
2022/11/01 05:22:05;;;;;;;2.40;2.30;;;;;;;;;;6274810;22;20068;-70
2022/11/01 05:24:30;;;;;;;4.10;2.50;;;;;;;;;;6275613;22;20023;-70
2022/11/01 05:26:56;;;;;;;3.25;3.05;;;;;;;;;;6275543;22;20004;-71
2022/11/01 05:29:22;;;;;;;4.25;3.00;;;;;;;;;;6249764;22;20019;-70
2022/11/01 05:31:48;;;;;;;3.28;2.97;;;;;;;;;;6302638;22;20036;-69
2022/11/01 05:34:14;;;;;;;3.85;3.58;;;;;;;;;;6249777;22;20112;-69
2022/11/01 05:36:40;;;;;;;3.45;3.15;;;;;;;;;;6302463;22;20152;-70
2022/11/01 05:39:06;;;;;;;6.18;2.97;;;;;;;;;;6302364;22;20007;-69
2022/11/01 05:41:32;;;;;;;2.90;2.70;;;;;;;;;;6302258;22;20015;-70
2022/11/01 05:43:58;;;;;;;2.92;2.72;;;;;;;;;;6275227;22;20110;-70
2022/11/01 05:46:24;;;;;;;3.85;3.60;;;;;;;;;;6274683;22;20034;-69
2022/11/01 05:48:49;;;;;;;4.55;4.15;;;;;;;;;;6302511;22;20336;-70
2022/11/01 05:51:15;;;;;;;8.18;3.00;;;;;;;;;;6274664;22;20007;-70
2022/11/01 05:53:41;;;;;;;3.47;3.17;;;;;;;;;;6301183;22;20015;-73
2022/11/01 05:56:07;;;;;;;2.83;2.63;;;;;;;;;;6302049;22;20018;-73
2022/11/01 05:58:33;;;;;;;3.53;3.20;;;;;;;;;;6302043;22;20019;-73
2022/11/01 06:01:00;;;;;;;4.10;3.78;;;;;;;;;;6302528;22;20011;-73
2022/11/01 06:03:26;;;;;;;20.60;3.40;;;;;;;;;;6303028;22;20520;-73
2022/11/01 06:05:52;;;;;;;3.30;3.00;;;;;;;;;;6302421;22;20011;-73
2022/11/01 06:08:18;;;;;;;4.28;3.03;;;;;;;;;;6275402;22;20064;-74
2022/11/01 06:10:44;;;;;;;3.92;3.50;;;;;;;;;;6302717;22;20085;-74
2022/11/01 06:13:10;;;;;;;3.50;3.30;;;;;;;;;;6302126;22;20034;-74
2022/11/01 06:15:36;;;;;;;5.80;3.80;;;;;;;;;;6243976;22;20566;-74
2022/11/01 06:18:02;;;;;;;4.22;3.15;;;;;;;;;;6300753;22;20019;-75
2022/11/01 06:20:30;;;;;;;3.25;3.05;;;;;;;;;;6299789;22;20081;-75
2022/11/01 06:22:59;;;;;;;2.75;2.65;;;;;;;;;;6245407;22;20325;-74
2022/11/01 06:25:25;;;;;;;3.65;2.67;;;;;;;;;;6299633;22;20073;-75
2022/11/01 06:27:52;;;;;;;8.52;3.15;;;;;;;;;;6300967;22;20089;-75
2022/11/01 06:30:18;;;;;;;2.20;2.10;;;;;;;;;;6300537;22;20091;-74
2022/11/01 06:32:44;;;;;;;3.30;3.00;;;;;;;;;;6247062;22;20381;-75
2022/11/01 06:35:10;;;;;;;2.20;2.10;;;;;;;;;;6300638;22;20038;-75
2022/11/01 06:37:37;;;;;;;2.20;2.00;;;;;;;;;;6273461;22;20015;-73
2022/11/01 06:40:03;;;;;;;2.85;2.28;;;;;;;;;;6301012;22;20010;-71
2022/11/01 06:42:29;;;;;;;2.40;2.30;;;;;;;;;;6300039;22;20088;-73
2022/11/01 06:44:54;;;;;;;2.83;2.63;;;;;;;;;;6300099;22;20015;-73
2022/11/01 06:47:20;;;;;;;4.28;2.97;;;;;;;;;;6300302;22;20328;-73
2022/11/01 06:49:46;;;;;;;6.75;3.10;;;;;;;;;;6300905;22;20021;-74
2022/11/01 06:52:12;;;;;;;2.88;2.70;;;;;;;;;;6247687;22;20011;-72
2022/11/01 06:54:38;;;;;;;3.53;3.22;;;;;;;;;;6300579;22;20129;-73
2022/11/01 06:57:04;;;;;;;2.92;2.65;;;;;;;;;;6273191;22;20045;-72
2022/11/01 06:59:30;;;;;;;2.50;2.40;;;;;;;;;;6300299;22;20019;-73
2022/11/01 07:01:56;;;;;;;3.15;2.95;;;;;;;;;;6300315;22;20021;-72
2022/11/01 07:04:22;;;;;;;2.70;2.50;;;;;;;;;;6275019;22;20102;-73
2022/11/01 07:06:48;;;;;;;8.65;2.90;;;;;;;;;;6300361;22;20003;-72
2022/11/01 07:09:14;;;;;;;3.92;3.03;;;;;;;;;;6272615;22;20110;-71
2022/11/01 07:11:41;;;;;;;6.90;3.42;;;;;;;;;;6273379;22;20031;-71
2022/11/01 07:14:08;;;;;;;2.92;2.63;;;;;;;;;;6300761;22;20099;-72
2022/11/01 07:16:33;;;;;;;8.75;3.30;;;;;;;;;;6247929;22;20011;-72
2022/11/01 07:18:59;;;;;;;3.33;3.08;;;;;;;;;;6300601;22;20536;-71
2022/11/01 07:21:26;;;;;;;2.80;2.53;;;;;;;;;;6272786;22;20019;-72
2022/11/01 07:23:52;;;;;;;4.50;2.67;;;;;;;;;;6272601;22;20058;-73
2022/11/01 07:26:19;;;;;;;3.92;2.67;;;;;;;;;;6299661;22;20019;-72
2022/11/01 07:28:44;;;;;;;3.15;2.92;;;;;;;;;;6247458;22;20019;-71
2022/11/01 07:31:10;;;;;;;3.08;2.72;;;;;;;;;;6273505;22;20169;-72
2022/11/01 07:33:36;;;;;;;5.80;2.75;;;;;;;;;;6301861;22;20022;-73
2022/11/01 07:36:02;;;;;;;7.47;2.97;;;;;;;;;;6302740;22;20039;-73
2022/11/01 07:38:28;;;;;;;2.25;2.15;;;;;;;;;;6276088;22;20092;-73
2022/11/01 07:40:54;;;;;;;3.47;2.72;;;;;;;;;;6303094;22;20376;-73
2022/11/01 07:43:20;;;;;;;2.42;2.22;;;;;;;;;;6302713;22;20019;-73
2022/11/01 07:45:46;;;;;;;9.25;3.35;;;;;;;;;;6303772;22;20095;-74
2022/11/01 07:48:13;;;;;;;8.32;3.15;;;;;;;;;;6302202;22;20015;-74
2022/11/01 07:50:39;;;;;;;9.30;3.25;;;;;;;;;;6276517;22;20007;-73
2022/11/01 07:53:06;;;;;;;2.78;2.33;;;;;;;;;;6276354;22;20015;-75
2022/11/01 07:55:32;;;;;;;7.25;2.65;;;;;;;;;;6275154;22;20011;-74
2022/11/01 07:57:58;;;;;;;3.30;2.80;;;;;;;;;;6274526;22;20019;-73
2022/11/01 08:00:24;;;;;;;2.70;2.50;;;;;;;;;;6301335;22;20045;-73
2022/11/01 08:02:50;;;;;;;2.75;2.47;;;;;;;;;;6274035;22;20015;-74
2022/11/01 08:05:16;;;;;;;2.13;2.03;;;;;;;;;;6274359;22;20022;-73
2022/11/01 08:07:42;;;;;;;2.60;2.40;;;;;;;;;;6274813;22;20011;-73
2022/11/01 08:10:09;;;;;;;5.93;2.55;;;;;;;;;;6274564;22;20015;-72
2022/11/01 08:12:35;;;;;;;2.85;2.65;;;;;;;;;;6302121;22;20018;-73
2022/11/01 08:15:01;;;;;;;3.95;2.67;;;;;;;;;;6274947;22;20011;-72
2022/11/01 08:17:29;;;;;;;2.53;2.42;;;;;;;;;;6302141;22;20604;-74
2022/11/01 08:19:55;;;;;;;2.28;2.17;;;;;;;;;;6275138;22;20098;-72
2022/11/01 08:22:21;;;;;;;2.53;2.33;;;;;;;;;;6301341;22;20007;-74
2022/11/01 08:24:47;;;;;;;2.85;2.67;;;;;;;;;;6275503;22;20451;-74
2022/11/01 08:27:13;;;;;;;3.05;2.85;;;;;;;;;;6274119;22;20034;-72
2022/11/01 08:29:39;;;;;;;2.85;2.60;;;;;;;;;;6302489;22;20015;-72
2022/11/01 08:32:04;;;;;;;4.05;3.50;;;;;;;;;;6224038;22;20042;-74
2022/11/01 08:34:30;;;;;;;2.78;2.47;;;;;;;;;;6301848;22;20359;-73
2022/11/01 08:36:57;;;;;;;3.20;2.70;;;;;;;;;;6301243;22;20094;-73
2022/11/01 08:39:23;;;;;;;2.63;2.45;;;;;;;;;;6273848;22;20431;-73
2022/11/01 08:41:49;;;;;;;3.90;2.60;;;;;;;;;;6273172;22;20018;-73
2022/11/01 08:44:17;;;;;;;3.90;3.08;;;;;;;;;;6301421;22;20127;-73
2022/11/01 08:46:43;;;;;;;3.08;2.88;;;;;;;;;;6302922;22;20015;-73
2022/11/01 08:49:09;;;;;;;3.03;2.83;;;;;;;;;;6303730;22;20038;-73
2022/11/01 08:51:35;;;;;;;2.80;2.50;;;;;;;;;;6303608;22;20011;-73
2022/11/01 08:54:01;;;;;;;2.75;2.65;;;;;;;;;;6303707;22;20443;-74
2022/11/01 08:56:28;;;;;;;5.57;2.80;;;;;;;;;;6303285;22;20018;-73
2022/11/01 08:58:54;;;;;;;3.58;2.70;;;;;;;;;;6250915;22;20026;-73
2022/11/01 09:01:22;;;;;;;2.88;2.65;;;;;;;;;;6303652;22;20017;-72
2022/11/01 09:03:48;;;;;;;2.55;2.40;;;;;;;;;;6303206;22;20019;-73
2022/11/01 09:06:14;;;;;;;3.03;2.83;;;;;;;;;;6274933;22;20038;-73
2022/11/01 09:08:40;;;;;;;9.75;2.88;;;;;;;;;;6274551;22;20019;-73
2022/11/01 09:11:06;;;;;;;2.65;2.50;;;;;;;;;;6302972;22;20061;-73
2022/11/01 09:13:32;;;;;;;4.00;2.90;;;;;;;;;;6275652;22;20046;-73
2022/11/01 09:15:59;;;;;;;6.63;2.95;;;;;;;;;;6275778;22;20019;-73
2022/11/01 09:18:25;;;;;;;2.72;2.63;;;;;;;;;;6302958;22;20011;-72
2022/11/01 09:20:54;;;;;;;4.50;4.07;;;;;;;;;;6275726;22;20098;-73
2022/11/01 09:23:20;;;;;;;5.88;3.58;;;;;;;;;;6275435;22;20101;-73
2022/11/01 09:25:46;;;;;;;11.18;3.75;;;;;;;;;;6250540;22;20007;-73
2022/11/01 09:28:12;;;;;;;4.53;3.50;;;;;;;;;;6275590;22;20022;-73
2022/11/01 09:30:39;;;;;;;4.25;3.88;;;;;;;;;;6276060;22;20017;-73
2022/11/01 09:33:04;;;;;;;4.25;3.95;;;;;;;;;;6303429;22;20011;-73
2022/11/01 09:35:30;;;;;;;3.85;3.65;;;;;;;;;;6305680;22;20404;-74
2022/11/01 09:37:57;;;;;;;2.70;2.60;;;;;;;;;;6282189;22;20076;-74
2022/11/01 09:40:23;;;;;;;4.22;2.55;;;;;;;;;;6255621;22;20014;-73
2022/11/01 09:42:49;;;;;;;3.88;3.58;;;;;;;;;;6253067;22;20049;-74
2022/11/01 09:45:17;;;;;;;5.60;3.83;;;;;;;;;;6250384;22;20367;-73
2022/11/01 09:47:45;;;;;;;4.22;3.63;;;;;;;;;;6302989;22;20007;-73
2022/11/01 09:50:17;;;;;;;3.55;3.35;;;;;;;;;;6303399;22;20038;-73
2022/11/01 09:52:43;;;;;;;4.60;4.00;;;;;;;;;;6302717;22;20011;-73
2022/11/01 09:55:13;;;;;;;5.10;3.58;;;;;;;;;;6275631;22;20069;-73
2022/11/01 09:57:48;;;;;;;4.43;3.50;;;;;;;;;;6275653;22;20423;-73
2022/11/01 10:00:15;;;;;;;4.20;3.30;;;;;;;;;;6220787;22;20532;-74
2022/11/01 10:02:41;;;;;;;3.90;2.90;;;;;;;;;;6299798;22;20352;-74
2022/11/01 10:05:10;;;;;;;6.88;3.70;;;;;;;;;;6275271;22;20015;-75
2022/11/01 10:07:42;;;;;;;6.70;3.97;;;;;;;;;;6301913;22;20011;-75
2022/11/01 10:10:30;;;;;;;4.13;3.17;;;;;;;;;;6302515;22;20097;-74
2022/11/01 10:13:11;;;;;;;4.28;3.88;;;;;;;;;;6249637;22;20022;-74
2022/11/01 10:15:37;;;;;;;;;;;;;;;;;;6275507;22;20602;-74
2022/11/01 10:18:16;;;;;;;4.85;3.58;;;;;;;;;;6302250;22;19907;-75
2022/11/01 10:20:42;;;;;;;3.65;2.83;;;;;;;;;;6275241;22;20011;-74
2022/11/01 10:23:09;;;;;;;10.02;3.88;;;;;;;;;;6249511;22;20033;-74
2022/11/01 10:25:36;;;;;;;3.33;3.13;;;;;;;;;;6249684;22;20015;-74
2022/11/01 10:28:25;;;;;;;6.38;3.25;;;;;;;;;;6249256;22;20023;-73
2022/11/01 10:31:00;;;;;;;5.60;3.58;;;;;;;;;;6278580;22;20577;-74
2022/11/01 10:33:39;;;;;;;3.92;3.40;;;;;;;;;;6305764;22;20018;-74
2022/11/01 10:36:05;;;;;;;5.55;4.03;;;;;;;;;;6303467;22;20449;-74
2022/11/01 10:38:31;;;;;;;9.77;3.60;;;;;;;;;;6274980;22;20011;-74
2022/11/01 10:41:15;;;;;;;7.55;3.40;;;;;;;;;;6302333;22;20022;-74
2022/11/01 10:43:46;;;;;;;3.30;3.10;;;;;;;;;;6301825;22;20023;-75
2022/11/01 10:46:13;;;;;;;11.52;3.63;;;;;;;;;;6274784;22;20015;-74
2022/11/01 10:48:47;;;;;;;4.32;3.90;;;;;;;;;;6274669;22;20011;-73
2022/11/01 10:51:14;;;;;;;4.30;3.90;;;;;;;;;;6275046;22;20022;-74
2022/11/01 10:53:42;;;;;;;3.80;3.42;;;;;;;;;;6274339;22;20011;-74
2022/11/01 10:56:08;;;;;;;4.00;3.70;;;;;;;;;;6301900;22;20350;-73
2022/11/01 10:58:41;;;;;;;3.63;3.42;;;;;;;;;;6301402;22;20072;-73
2022/11/01 11:01:09;;;;;;;5.55;3.03;;;;;;;;;;6301620;22;20079;-73
2022/11/01 11:03:35;;;;;;;4.38;2.90;;;;;;;;;;6249168;22;20049;-74
2022/11/01 11:06:03;;;;;;;4.25;2.90;;;;;;;;;;6301814;22;20018;-74
2022/11/01 11:08:29;;;;;;;3.35;3.00;;;;;;;;;;6301581;22;20015;-74
2022/11/01 11:10:56;;;;;;;3.33;3.05;;;;;;;;;;6274465;22;20011;-74
2022/11/01 11:13:22;;;;;;;5.13;3.10;;;;;;;;;;6274374;22;20019;-74
2022/11/01 11:15:49;;;;;;;3.40;3.20;;;;;;;;;;6274266;22;20325;-74
2022/11/01 11:18:26;;;;;;;3.55;3.25;;;;;;;;;;6274630;22;20011;-74
2022/11/01 11:20:53;;;;;;;6.13;3.90;;;;;;;;;;6274234;22;20405;-73
2022/11/01 11:23:21;;;;;;;4.53;3.38;;;;;;;;;;6273849;22;20023;-73
2022/11/01 11:25:49;;;;;;;7.50;3.78;;;;;;;;;;6301831;22;20098;-74
2022/11/01 11:28:27;;;;;;;4.82;3.28;;;;;;;;;;6301709;22;20015;-74
2022/11/01 11:30:53;;;;;;;3.67;3.40;;;;;;;;;;6301307;22;20549;-74
2022/11/01 11:33:20;;;;;;;7.43;3.80;;;;;;;;;;6274140;22;20012;-74
2022/11/01 11:35:52;;;;;;;3.75;3.45;;;;;;;;;;6274518;22;20007;-74
2022/11/01 11:38:18;;;;;;;5.18;3.35;;;;;;;;;;6304445;22;20019;-74
2022/11/01 11:40:47;;;;;;;4.97;3.25;;;;;;;;;;6278532;22;20007;-74
2022/11/01 11:43:22;;;;;;;3.88;2.72;;;;;;;;;;6304274;22;20368;-73
2022/11/01 11:46:05;;;;;;;3.40;3.17;;;;;;;;;;6276250;22;20018;-74
2022/11/01 11:48:31;;;;;;;5.93;3.65;;;;;;;;;;6303644;22;20015;-76
2022/11/01 11:51:03;;;;;;;5.00;3.33;;;;;;;;;;6276625;22;20014;-73
2022/11/01 11:53:31;;;;;;;4.30;3.40;;;;;;;;;;6303269;22;20396;-73
2022/11/01 11:55:57;;;;;;;4.60;2.92;;;;;;;;;;6303891;22;20007;-73
2022/11/01 11:58:34;;;;;;;8.15;3.72;;;;;;;;;;6303214;22;20086;-74
2022/11/01 12:01:04;;;;;;;3.90;3.63;;;;;;;;;;6225059;22;20115;-73
2022/11/01 12:03:32;;;;;;;10.02;4.18;;;;;;;;;;6303488;22;20019;-73
2022/11/01 12:06:05;;;;;;;9.35;3.40;;;;;;;;;;6250757;22;20011;-74
2022/11/01 12:08:33;;;;;;;6.75;3.60;;;;;;;;;;6277390;22;20011;-74
2022/11/01 12:10:59;;;;;;;4.63;3.45;;;;;;;;;;6277959;22;20022;-73
2022/11/01 12:13:40;;;;;;;5.07;3.90;;;;;;;;;;6304567;22;20487;-75
2022/11/01 12:16:06;;;;;;;4.47;4.00;;;;;;;;;;6276645;22;20038;-74
2022/11/01 12:18:32;;;;;;;10.15;3.85;;;;;;;;;;6303693;22;20015;-73
2022/11/01 12:20:58;;;;;;;5.32;3.63;;;;;;;;;;6303794;22;20100;-73
2022/11/01 12:23:32;;;;;;;6.43;3.40;;;;;;;;;;6303613;22;20337;-73
2022/11/01 12:25:58;;;;;;;4.70;3.88;;;;;;;;;;6225739;22;20019;-74
2022/11/01 12:28:26;;;;;;;7.57;4.28;;;;;;;;;;6276013;22;20018;-74
2022/11/01 12:30:51;;;;;;;7.90;4.53;;;;;;;;;;6275421;22;20008;-73
2022/11/01 12:33:21;;;;;;;7.03;4.75;;;;;;;;;;6273626;22;20026;-74
2022/11/01 12:35:47;;;;;;;8.98;4.68;;;;;;;;;;6276098;22;20034;-74
2022/11/01 12:38:32;;;;;;;9.07;4.75;;;;;;;;;;6303394;22;20035;-74
2022/11/01 12:41:01;;;;;;;5.47;3.45;;;;;;;;;;6276052;22;20467;-74
2022/11/01 12:43:31;;;;;;;4.72;3.60;;;;;;;;;;6276000;22;20019;-74
2022/11/01 12:46:01;;;;;;;5.63;4.57;;;;;;;;;;6276475;22;20011;-74
2022/11/01 12:48:29;;;;;;;5.05;3.58;;;;;;;;;;6276116;22;20545;-74
2022/11/01 12:51:04;;;;;;;5.60;3.45;;;;;;;;;;6303646;22;20424;-74
2022/11/01 12:53:48;;;;;;;8.27;3.97;;;;;;;;;;6303292;22;20015;-74
2022/11/01 12:56:15;;;;;;;6.13;4.20;;;;;;;;;;6276678;22;20057;-74
2022/11/01 12:58:41;;;;;;;4.82;3.67;;;;;;;;;;6303235;22;20019;-74
2022/11/01 13:01:07;;;;;;;7.90;3.15;;;;;;;;;;6276649;22;20015;-74
2022/11/01 13:03:52;;;;;;;3.88;3.50;;;;;;;;;;6250493;22;20069;-74
2022/11/01 13:06:21;;;;;;;4.00;3.67;;;;;;;;;;6303590;22;20022;-73
2022/11/01 13:09:07;;;;;;;3.20;2.90;;;;;;;;;;6302760;22;20017;-74
2022/11/01 13:11:42;;;;;;;5.47;3.33;;;;;;;;;;6303229;22;20444;-75
2022/11/01 13:14:27;;;;;;;7.95;3.20;;;;;;;;;;6304849;22;20141;-75
2022/11/01 13:17:13;;;;;;;5.05;3.50;;;;;;;;;;6299561;22;20007;-74
2022/11/01 13:19:46;;;;;;;3.72;3.47;;;;;;;;;;6274296;22;20478;-72
2022/11/01 13:22:14;;;;;;;9.90;3.80;;;;;;;;;;6274661;22;20011;-72
2022/11/01 13:24:49;;;;;;;5.55;3.80;;;;;;;;;;6301947;22;20023;-73
2022/11/01 13:27:17;;;;;;;9.18;4.80;;;;;;;;;;6303172;22;20010;-72
2022/11/01 13:29:49;;;;;;;3.65;3.33;;;;;;;;;;6301841;22;20333;-74
2022/11/01 13:32:18;;;;;;;5.38;3.30;;;;;;;;;;6276089;22;20011;-72
2022/11/01 13:34:48;;;;;;;4.25;3.35;;;;;;;;;;6301759;22;20077;-73
2022/11/01 13:37:32;;;;;;;3.25;2.83;;;;;;;;;;6303694;22;20030;-74
2022/11/01 13:40:10;;;;;;;2.17;2.08;;;;;;;;;;6276453;22;20023;-74
2022/11/01 13:42:40;;;;;;;4.57;3.20;;;;;;;;;;6275832;22;20102;-73
2022/11/01 13:45:18;;;;;;;2.92;2.47;;;;;;;;;;6303172;22;20015;-73
2022/11/01 13:47:50;;;;;;;4.45;2.45;;;;;;;;;;6273347;22;20068;-74
2022/11/01 13:50:37;;;;;;;3.97;3.30;;;;;;;;;;6274776;22;20011;-73
2022/11/01 13:53:06;;;;;;;4.03;3.65;;;;;;;;;;6301169;22;20034;-74
2022/11/01 13:55:35;;;;;;;2.95;2.75;;;;;;;;;;6301160;22;20011;-74
2022/11/01 13:58:02;;;;;;;6.57;2.63;;;;;;;;;;6248301;22;20019;-73
2022/11/01 14:00:34;;;;;;;8.55;3.50;;;;;;;;;;6274078;22;20027;-73
2022/11/01 14:03:01;;;;;;;7.90;2.90;;;;;;;;;;6300905;22;20073;-74
2022/11/01 14:05:35;;;;;;;5.13;3.80;;;;;;;;;;6222877;22;20445;-73
2022/11/01 14:08:05;;;;;;;23.70;9.65;;;;;;;;;;6272969;22;20435;-73
2022/11/01 14:10:31;;;;;;;19.50;8.75;;;;;;;;;;6300731;22;20046;-73
2022/11/01 14:13:07;;;;;;;7.20;5.03;;;;;;;;;;6273217;22;20011;-72
2022/11/01 14:15:35;;;;;;;7.00;3.25;;;;;;;;;;6273522;22;20007;-72
2022/11/01 14:18:02;;;;;;;7.32;3.58;;;;;;;;;;6300523;22;20011;-73
2022/11/01 14:20:32;;;;;;;5.40;3.42;;;;;;;;;;6248234;22;20065;-73
2022/11/01 14:22:58;;;;;;;6.07;3.55;;;;;;;;;;6300901;22;20105;-73
2022/11/01 14:25:28;;;;;;;3.10;2.80;;;;;;;;;;6300911;22;20015;-73
2022/11/01 14:28:32;;;;;;;5.75;3.08;;;;;;;;;;6299511;22;20011;-74
2022/11/01 14:30:58;;;;;;;3.38;2.67;;;;;;;;;;6175874;23;20017;-74
2022/11/01 14:33:25;;;;;;;7.13;2.80;;;;;;;;;;6151119;23;20128;-76
2022/11/01 14:35:54;;;;;;;5.65;3.13;;;;;;;;;;6159608;22;20042;-75
2022/11/01 14:38:22;;;;;;;4.13;3.65;;;;;;;;;;6274306;22;20358;-74
2022/11/01 14:40:53;;;;;;;3.80;2.95;;;;;;;;;;6279857;22;20351;-77
2022/11/01 14:43:25;;;;;;;5.40;3.13;;;;;;;;;;6261747;22;20077;-75
2022/11/01 14:45:53;;;;;;;5.00;2.63;;;;;;;;;;6274672;22;20007;-74
2022/11/01 14:48:28;;;;;;;5.65;4.32;;;;;;;;;;6319380;22;20094;-75
2022/11/01 14:51:02;;;;;;;4.93;3.45;;;;;;;;;;6297741;22;20031;-75
2022/11/01 14:53:30;;;;;;;4.97;3.10;;;;;;;;;;6319834;22;20064;-75
2022/11/01 14:56:16;;;;;;;3.65;3.35;;;;;;;;;;6318638;22;20019;-75